createdAt,value
2018-09-13T00:00:48.370Z,9.10
2018-09-13T00:01:48.365Z,9.10
2018-09-13T00:02:48.327Z,10.00
2018-09-13T00:03:48.313Z,10.10
2018-09-13T00:04:48.613Z,10.00
2018-09-13T00:05:48.262Z,8.90
2018-09-13T00:06:48.242Z,11.10
2018-09-13T00:07:48.214Z,9.70
2018-09-13T00:08:48.184Z,8.40
2018-09-13T00:09:48.174Z,8.70
2018-09-13T00:10:48.148Z,8.80
2018-09-13T00:11:48.117Z,8.40
2018-09-13T00:12:48.103Z,8.20
2018-09-13T00:13:48.086Z,9.50
2018-09-13T00:14:48.115Z,8.30
2018-09-13T00:15:48.075Z,8.20
2018-09-13T00:16:48.066Z,8.70
2018-09-13T00:17:48.033Z,9.10
2018-09-13T00:18:48.008Z,9.10
2018-09-13T00:19:47.992Z,8.60
2018-09-13T00:20:48.102Z,8.40
2018-09-13T00:21:47.935Z,8.50
2018-09-13T00:22:47.925Z,8.70
2018-09-13T00:23:47.904Z,7.70
2018-09-13T00:24:47.859Z,7.70
2018-09-13T00:25:47.855Z,7.90
2018-09-13T00:26:47.818Z,7.50
2018-09-13T00:27:47.790Z,7.30
2018-09-13T00:28:47.770Z,8.00
2018-09-13T00:29:47.747Z,7.60
2018-09-13T00:30:47.741Z,7.10
2018-09-13T00:31:47.710Z,7.30
2018-09-13T00:32:47.675Z,7.60
2018-09-13T00:33:47.664Z,7.80
2018-09-13T00:34:47.651Z,7.90
2018-09-13T00:35:47.620Z,7.10
2018-09-13T00:36:47.587Z,7.20
2018-09-13T00:37:47.572Z,6.50
2018-09-13T00:38:47.535Z,6.70
2018-09-13T00:39:47.515Z,6.50
2018-09-13T00:40:47.558Z,7.20
2018-09-13T00:41:47.477Z,6.40
2018-09-13T00:42:47.444Z,6.60
2018-09-13T00:43:47.417Z,6.40
2018-09-13T00:44:47.398Z,6.00
2018-09-13T00:45:47.390Z,5.80
2018-09-13T00:46:47.370Z,6.20
2018-09-13T00:47:47.325Z,5.90
2018-09-13T00:48:47.319Z,5.70
2018-09-13T00:49:47.292Z,5.60
2018-09-13T00:50:47.268Z,5.50
2018-09-13T00:51:47.235Z,5.70
2018-09-13T00:52:47.209Z,5.90
2018-09-13T00:53:47.201Z,5.70
2018-09-13T00:54:47.174Z,5.40
2018-09-13T00:55:47.153Z,6.00
2018-09-13T00:56:47.121Z,6.10
2018-09-13T00:57:47.094Z,5.60
2018-09-13T00:58:47.086Z,5.60
2018-09-13T00:59:47.056Z,5.60
2018-09-13T01:00:47.025Z,5.20
2018-09-13T01:01:47.000Z,5.30
2018-09-13T01:02:46.982Z,5.70
2018-09-13T01:03:47.046Z,5.60
2018-09-13T01:04:46.933Z,5.40
2018-09-13T01:05:46.912Z,5.40
2018-09-13T01:06:46.897Z,5.40
2018-09-13T01:07:46.875Z,5.50
2018-09-13T01:08:46.852Z,5.30
2018-09-13T01:09:46.820Z,5.20
2018-09-13T01:10:46.804Z,5.50
2018-09-13T01:11:46.785Z,5.70
2018-09-13T01:12:46.749Z,5.30
2018-09-13T01:13:46.733Z,6.00
2018-09-13T01:14:46.721Z,5.50
2018-09-13T01:15:46.685Z,5.60
2018-09-13T01:16:46.656Z,5.60
2018-09-13T01:17:46.645Z,5.60
2018-09-13T01:18:46.604Z,4.90
2018-09-13T01:19:46.575Z,5.20
2018-09-13T01:20:46.570Z,5.30
2018-09-13T01:21:46.551Z,5.30
2018-09-13T01:22:46.523Z,5.70
2018-09-13T01:23:46.497Z,5.50
2018-09-13T01:24:46.472Z,5.50
2018-09-13T01:25:46.453Z,5.40
2018-09-13T01:26:46.434Z,5.70
2018-09-13T01:27:46.412Z,5.30
2018-09-13T01:28:46.381Z,5.40
2018-09-13T01:29:46.350Z,5.50
2018-09-13T01:30:46.339Z,5.50
2018-09-13T01:31:46.312Z,4.90
2018-09-13T01:32:46.294Z,5.40
2018-09-13T01:33:46.259Z,5.40
2018-09-13T01:34:46.232Z,5.10
2018-09-13T01:35:46.206Z,5.00
2018-09-13T01:36:46.198Z,5.10
2018-09-13T01:37:46.163Z,5.40
2018-09-13T01:38:46.152Z,4.90
2018-09-13T01:39:46.117Z,5.20
2018-09-13T01:40:46.091Z,4.80
2018-09-13T01:41:46.079Z,5.00
2018-09-13T01:42:46.045Z,5.50
2018-09-13T01:43:46.021Z,4.90
2018-09-13T01:44:46.011Z,5.10
2018-09-13T01:45:45.984Z,5.00
2018-09-13T01:46:45.952Z,6.20
2018-09-13T01:47:45.940Z,5.50
2018-09-13T01:48:45.915Z,5.70
2018-09-13T01:49:45.884Z,5.40
2018-09-13T01:50:45.862Z,5.30
2018-09-13T01:51:45.837Z,4.80
2018-09-13T01:52:45.822Z,4.70
2018-09-13T01:53:45.788Z,4.30
2018-09-13T01:54:45.762Z,5.20
2018-09-13T01:55:45.740Z,4.50
2018-09-13T01:56:45.714Z,5.00
2018-09-13T01:57:45.694Z,4.50
2018-09-13T01:58:45.667Z,4.90
2018-09-13T01:59:45.658Z,4.30
2018-09-13T02:00:45.637Z,4.70
2018-09-13T02:01:45.611Z,4.50
2018-09-13T02:02:45.580Z,5.40
2018-09-13T02:03:45.558Z,4.90
2018-09-13T02:04:45.543Z,5.30
2018-09-13T02:05:45.506Z,4.90
2018-09-13T02:06:45.486Z,5.10
2018-09-13T02:07:45.459Z,5.20
2018-09-13T02:08:45.450Z,5.80
2018-09-13T02:09:45.416Z,5.60
2018-09-13T02:10:45.405Z,5.90
2018-09-13T02:11:45.368Z,5.10
2018-09-13T02:12:45.354Z,4.80
2018-09-13T02:13:45.331Z,5.20
2018-09-13T02:14:45.312Z,6.60
2018-09-13T02:15:45.374Z,6.60
2018-09-13T02:16:45.255Z,6.20
2018-09-13T02:17:45.223Z,6.90
2018-09-13T02:18:45.205Z,6.20
2018-09-13T02:19:45.177Z,6.30
2018-09-13T02:20:45.152Z,7.10
2018-09-13T02:21:45.141Z,6.80
2018-09-13T02:22:45.108Z,6.40
2018-09-13T02:23:45.079Z,8.20
2018-09-13T02:24:45.060Z,7.00
2018-09-13T02:25:45.048Z,6.70
2018-09-13T02:26:45.019Z,7.30
2018-09-13T02:27:45.000Z,7.20
2018-09-13T02:28:44.981Z,7.40
2018-09-13T02:29:44.944Z,7.00
2018-09-13T02:30:44.932Z,7.70
2018-09-13T02:31:44.900Z,7.60
2018-09-13T02:32:44.874Z,7.10
2018-09-13T02:33:44.847Z,7.80
2018-09-13T02:34:44.823Z,7.80
2018-09-13T02:35:44.815Z,8.20
2018-09-13T02:36:44.779Z,7.20
2018-09-13T02:37:44.755Z,8.10
2018-09-13T02:38:44.743Z,8.80
2018-09-13T02:39:44.724Z,7.20
2018-09-13T02:40:44.684Z,7.60
2018-09-13T02:41:44.602Z,6.80
2018-09-13T02:42:44.595Z,7.50
2018-09-13T02:43:44.557Z,7.70
2018-09-13T02:44:44.548Z,7.60
2018-09-13T02:47:28.267Z,8.60
2018-09-13T02:48:28.241Z,8.20
2018-09-13T02:49:28.207Z,7.60
2018-09-13T02:50:28.195Z,8.60
2018-09-13T02:51:28.171Z,7.50
2018-09-13T02:52:28.171Z,8.70
2018-09-13T02:53:28.146Z,8.80
2018-09-13T02:54:28.111Z,8.50
2018-09-13T02:55:28.096Z,8.10
2018-09-13T02:56:28.073Z,8.10
2018-09-13T02:57:28.049Z,9.00
2018-09-13T02:58:28.028Z,9.00
2018-09-13T02:59:27.996Z,8.00
2018-09-13T03:00:27.968Z,7.60
2018-09-13T03:01:27.953Z,7.90
2018-09-13T03:02:28.049Z,8.80
2018-09-13T03:03:27.897Z,8.30
2018-09-13T03:04:27.923Z,8.40
2018-09-13T03:05:27.868Z,8.10
2018-09-13T03:06:27.825Z,8.40
2018-09-13T03:07:27.822Z,9.00
2018-09-13T03:08:27.822Z,8.70
2018-09-13T03:09:27.759Z,9.20
2018-09-13T03:10:27.745Z,8.60
2018-09-13T03:11:27.723Z,9.10
2018-09-13T03:12:27.699Z,10.20
2018-09-13T03:13:27.665Z,9.20
2018-09-13T03:14:27.657Z,9.10
2018-09-13T03:15:27.615Z,9.30
2018-09-13T03:16:27.593Z,10.10
2018-09-13T03:17:27.922Z,8.70
2018-09-13T03:18:27.554Z,9.00
2018-09-13T03:19:27.536Z,10.70
2018-09-13T03:20:27.505Z,9.60
2018-09-13T03:21:27.485Z,9.50
2018-09-13T03:22:27.461Z,9.00
2018-09-13T03:23:27.427Z,8.60
2018-09-13T03:24:27.411Z,8.90
2018-09-13T03:25:27.393Z,9.00
2018-09-13T03:26:27.363Z,8.30
2018-09-13T03:27:27.348Z,9.20
2018-09-13T03:28:27.325Z,9.60
2018-09-13T03:29:27.293Z,8.90
2018-09-13T03:30:27.292Z,10.00
2018-09-13T03:31:27.195Z,8.70
2018-09-13T03:32:27.173Z,8.90
2018-09-13T03:33:27.146Z,8.50
2018-09-13T03:34:27.113Z,8.70
2018-09-13T03:35:27.102Z,7.90
2018-09-13T03:36:27.074Z,8.20
2018-09-13T03:37:27.047Z,8.40
2018-09-13T03:38:27.027Z,8.20
2018-09-13T03:39:27.011Z,7.80
2018-09-13T03:40:26.985Z,8.10
2018-09-13T03:41:26.965Z,8.40
2018-09-13T03:42:26.933Z,8.70
2018-09-13T03:43:26.914Z,8.70
2018-09-13T03:44:26.895Z,8.50
2018-09-13T03:45:26.867Z,8.00
2018-09-13T03:46:26.833Z,8.10
2018-09-13T03:47:26.825Z,8.70
2018-09-13T03:48:26.799Z,8.70
2018-09-13T03:49:26.783Z,8.70
2018-09-13T03:50:26.744Z,9.00
2018-09-13T03:51:26.719Z,8.50
2018-09-13T03:52:26.697Z,8.60
2018-09-13T03:53:26.679Z,8.00
2018-09-13T03:54:26.652Z,7.40
2018-09-13T03:55:26.638Z,7.70
2018-09-13T03:56:26.605Z,8.40
2018-09-13T03:57:26.578Z,8.80
2018-09-13T03:58:26.557Z,8.80
2018-09-13T03:59:26.534Z,9.30
2018-09-13T04:00:26.523Z,8.20
2018-09-13T04:01:26.496Z,8.10
2018-09-13T04:02:26.520Z,9.00
2018-09-13T04:03:26.475Z,8.30
2018-09-13T04:04:26.422Z,6.90
2018-09-13T04:05:26.399Z,8.10
2018-09-13T04:06:26.382Z,7.60
2018-09-13T04:07:26.357Z,7.30
2018-09-13T04:08:26.336Z,7.50
2018-09-13T04:09:26.300Z,7.40
2018-09-13T04:10:26.280Z,7.80
2018-09-13T04:11:26.259Z,7.40
2018-09-13T04:12:26.573Z,8.00
2018-09-13T04:13:26.224Z,8.00
2018-09-13T04:14:26.190Z,7.80
2018-09-13T04:15:26.173Z,8.20
2018-09-13T04:16:26.138Z,8.00
2018-09-13T04:17:26.124Z,8.10
2018-09-13T04:18:26.091Z,8.50
2018-09-13T04:19:26.065Z,7.90
2018-09-13T04:20:26.045Z,8.70
2018-09-13T04:21:26.020Z,8.10
2018-09-13T04:22:25.994Z,7.90
2018-09-13T04:23:26.469Z,7.80
2018-09-13T04:24:25.953Z,7.40
2018-09-13T04:25:25.931Z,8.10
2018-09-13T04:26:25.915Z,7.40
2018-09-13T04:27:25.888Z,7.30
2018-09-13T04:28:25.861Z,8.10
2018-09-13T04:29:25.842Z,8.60
2018-09-13T04:30:25.826Z,8.80
2018-09-13T04:31:25.795Z,10.00
2018-09-13T04:32:25.776Z,8.90
2018-09-13T04:33:25.738Z,9.10
2018-09-13T04:34:25.720Z,9.40
2018-09-13T04:35:25.770Z,8.60
2018-09-13T04:36:25.679Z,9.00
2018-09-13T04:37:25.644Z,9.50
2018-09-13T04:38:25.632Z,9.90
2018-09-13T04:39:25.617Z,9.20
2018-09-13T04:40:25.588Z,8.80
2018-09-13T04:41:25.569Z,10.10
2018-09-13T04:42:25.537Z,10.70
2018-09-13T04:43:25.513Z,11.30
2018-09-13T04:44:25.484Z,9.20
2018-09-13T04:45:25.469Z,10.40
2018-09-13T04:46:25.437Z,11.30
2018-09-13T04:47:25.409Z,11.40
2018-09-13T04:48:25.404Z,10.60
2018-09-13T04:49:25.370Z,8.60
2018-09-13T04:50:25.348Z,9.10
2018-09-13T04:51:25.326Z,10.50
2018-09-13T04:52:25.304Z,11.10
2018-09-13T04:53:25.279Z,9.50
2018-09-13T04:54:25.257Z,12.10
2018-09-13T04:55:25.222Z,10.00
2018-09-13T04:56:25.215Z,9.20
2018-09-13T04:57:25.173Z,10.00
2018-09-13T04:58:25.151Z,10.20
2018-09-13T04:59:25.127Z,10.30
2018-09-13T05:00:25.135Z,10.80
2018-09-13T05:01:25.081Z,9.50
2018-09-13T05:02:25.059Z,10.10
2018-09-13T05:03:25.042Z,10.10
2018-09-13T05:04:25.019Z,10.00
2018-09-13T05:05:24.981Z,10.10
2018-09-13T05:06:24.973Z,9.40
2018-09-13T05:07:24.956Z,10.40
2018-09-13T05:08:24.913Z,8.40
2018-09-13T05:09:24.891Z,10.40
2018-09-13T05:10:24.861Z,9.50
2018-09-13T05:11:24.846Z,9.60
2018-09-13T05:12:24.823Z,9.80
2018-09-13T05:13:24.806Z,8.70
2018-09-13T05:14:24.784Z,9.20
2018-09-13T05:15:24.760Z,9.20
2018-09-13T05:16:24.738Z,8.40
2018-09-13T05:17:24.712Z,9.10
2018-09-13T05:18:24.688Z,10.90
2018-09-13T05:19:24.657Z,10.20
2018-09-13T05:20:24.644Z,9.40
2018-09-13T05:21:24.615Z,10.40
2018-09-13T05:22:24.592Z,9.40
2018-09-13T05:23:24.575Z,9.80
2018-09-13T05:24:24.591Z,10.80
2018-09-13T05:25:24.526Z,9.50
2018-09-13T05:26:24.503Z,10.20
2018-09-13T05:27:24.467Z,8.30
2018-09-13T05:28:24.447Z,9.70
2018-09-13T05:29:24.426Z,9.60
2018-09-13T05:30:24.387Z,10.50
2018-09-13T05:31:24.365Z,8.70
2018-09-13T05:32:24.339Z,8.20
2018-09-13T05:33:24.332Z,8.60
2018-09-13T05:34:24.299Z,9.10
2018-09-13T05:35:24.278Z,9.90
2018-09-13T05:36:24.265Z,9.60
2018-09-13T05:37:24.230Z,8.90
2018-09-13T05:38:24.210Z,9.80
2018-09-13T05:39:24.183Z,8.60
2018-09-13T05:40:24.157Z,9.40
2018-09-13T05:41:24.136Z,10.00
2018-09-13T05:42:24.120Z,9.90
2018-09-13T05:43:24.083Z,8.40
2018-09-13T05:44:24.066Z,9.00
2018-09-13T05:45:24.084Z,9.50
2018-09-13T05:46:24.012Z,8.60
2018-09-13T05:47:23.989Z,8.30
2018-09-13T05:48:23.978Z,5.40
2018-09-13T05:49:23.954Z,8.30
2018-09-13T05:50:23.917Z,8.90
2018-09-13T05:51:23.902Z,10.30
2018-09-13T05:52:23.881Z,9.30
2018-09-13T05:53:23.859Z,9.30
2018-09-13T05:54:23.822Z,7.40
2018-09-13T05:55:23.796Z,7.10
2018-09-13T05:56:56.984Z,7.30
2018-09-13T05:57:23.757Z,8.30
2018-09-13T05:58:23.741Z,8.70
2018-09-13T05:59:23.723Z,8.20
2018-09-13T06:00:23.685Z,8.40
2018-09-13T06:01:23.706Z,7.00
2018-09-13T06:02:23.646Z,6.90
2018-09-13T06:03:23.617Z,8.60
2018-09-13T06:04:23.590Z,8.90
2018-09-13T06:05:23.576Z,6.40
2018-09-13T06:06:23.538Z,7.70
2018-09-13T06:07:23.527Z,8.00
2018-09-13T06:08:23.488Z,7.30
2018-09-13T06:09:23.470Z,7.60
2018-09-13T06:10:23.441Z,10.40
2018-09-13T06:11:23.430Z,10.10
2018-09-13T06:12:23.397Z,8.10
2018-09-13T06:13:23.419Z,10.40
2018-09-13T06:14:23.358Z,7.00
2018-09-13T06:15:23.334Z,8.60
2018-09-13T06:16:23.302Z,6.60
2018-09-13T06:17:23.280Z,7.20
2018-09-13T06:18:23.264Z,9.50
2018-09-13T06:19:23.244Z,9.00
2018-09-13T06:20:23.204Z,11.30
2018-09-13T06:21:23.191Z,9.30
2018-09-13T06:22:23.167Z,9.50
2018-09-13T06:23:23.132Z,8.90
2018-09-13T06:24:23.111Z,9.40
2018-09-13T06:25:23.090Z,9.80
2018-09-13T06:26:23.060Z,10.00
2018-09-13T06:27:23.036Z,9.50
2018-09-13T06:28:23.032Z,10.70
2018-09-13T06:29:23.022Z,9.20
2018-09-13T06:30:22.977Z,11.80
2018-09-13T06:31:22.946Z,10.70
2018-09-13T06:32:22.927Z,11.30
2018-09-13T06:33:22.895Z,9.30
2018-09-13T06:34:22.880Z,10.40
2018-09-13T06:35:22.859Z,8.70
2018-09-13T06:36:22.853Z,9.70
2018-09-13T06:37:22.800Z,9.90
2018-09-13T06:38:22.892Z,6.80
2018-09-13T06:39:22.766Z,10.90
2018-09-13T06:40:22.730Z,10.80
2018-09-13T06:41:22.706Z,10.40
2018-09-13T06:42:22.695Z,10.30
2018-09-13T06:43:22.675Z,9.60
2018-09-13T06:44:22.651Z,11.60
2018-09-13T06:45:22.623Z,10.80
2018-09-13T06:46:22.599Z,8.70
2018-09-13T06:47:22.562Z,10.40
2018-09-13T06:48:22.548Z,9.60
2018-09-13T06:49:22.524Z,11.20
2018-09-13T06:50:22.494Z,11.00
2018-09-13T06:51:22.474Z,9.30
2018-09-13T06:52:22.452Z,10.30
2018-09-13T06:53:22.423Z,9.20
2018-09-13T06:54:22.400Z,10.00
2018-09-13T06:55:22.378Z,12.30
2018-09-13T06:56:22.359Z,10.50
2018-09-13T06:57:22.324Z,9.80
2018-09-13T06:58:22.295Z,9.00
2018-09-13T06:59:22.286Z,11.40
2018-09-13T07:00:22.264Z,10.20
2018-09-13T07:01:22.229Z,10.60
2018-09-13T07:02:22.255Z,10.90
2018-09-13T07:03:22.190Z,10.20
2018-09-13T07:04:22.157Z,9.50
2018-09-13T07:05:22.147Z,9.60
2018-09-13T07:06:22.122Z,9.20
2018-09-13T07:07:22.089Z,10.70
2018-09-13T07:08:22.072Z,11.30
2018-09-13T07:09:22.044Z,10.50
2018-09-13T07:10:22.017Z,9.80
2018-09-13T07:11:22.004Z,8.70
2018-09-13T07:12:21.979Z,10.50
2018-09-13T07:13:21.959Z,10.20
2018-09-13T07:14:21.932Z,11.00
2018-09-13T07:15:21.892Z,10.90
2018-09-13T07:16:21.874Z,10.50
2018-09-13T07:17:21.877Z,11.50
2018-09-13T07:18:21.826Z,10.70
2018-09-13T07:19:21.800Z,11.40
2018-09-13T07:20:21.777Z,9.90
2018-09-13T07:21:21.760Z,10.00
2018-09-13T07:22:21.739Z,10.00
2018-09-13T07:23:21.702Z,7.30
2018-09-13T07:24:21.692Z,10.60
2018-09-13T07:25:21.657Z,10.80
2018-09-13T07:26:21.638Z,10.60
2018-09-13T07:27:21.623Z,11.50
2018-09-13T07:28:21.587Z,9.90
2018-09-13T07:29:21.572Z,7.40
2018-09-13T07:30:21.546Z,9.20
2018-09-13T07:31:21.514Z,9.10
2018-09-13T07:32:21.484Z,9.00
2018-09-13T07:33:21.467Z,9.50
2018-09-13T07:34:21.452Z,12.40
2018-09-13T07:35:21.426Z,13.40
2018-09-13T07:36:21.408Z,11.00
2018-09-13T07:37:21.378Z,10.90
2018-09-13T07:38:21.357Z,10.40
2018-09-13T07:39:21.327Z,8.80
2018-09-13T07:40:21.316Z,9.90
2018-09-13T07:41:21.285Z,9.70
2018-09-13T07:42:21.277Z,11.70
2018-09-13T07:43:21.237Z,10.90
2018-09-13T07:44:21.211Z,10.80
2018-09-13T07:45:21.194Z,10.50
2018-09-13T07:46:21.160Z,10.10
2018-09-13T07:47:21.136Z,12.20
2018-09-13T07:48:21.104Z,11.60
2018-09-13T07:49:21.113Z,11.80
2018-09-13T07:50:21.056Z,11.70
2018-09-13T07:51:21.031Z,10.20
2018-09-13T07:52:21.010Z,11.20
2018-09-13T07:53:20.986Z,11.20
2018-09-13T07:54:20.976Z,9.80
2018-09-13T07:55:20.938Z,9.70
2018-09-13T07:56:20.944Z,10.70
2018-09-13T07:57:20.901Z,9.90
2018-09-13T07:58:54.078Z,10.50
2018-09-13T07:59:20.850Z,10.20
2018-09-13T08:00:20.834Z,12.30
2018-09-13T08:01:20.811Z,10.50
2018-09-13T08:02:20.777Z,8.40
2018-09-13T08:03:20.761Z,9.30
2018-09-13T08:04:20.864Z,8.90
2018-09-13T08:05:20.698Z,10.80
2018-09-13T08:06:20.689Z,10.70
2018-09-13T08:07:20.659Z,10.30
2018-09-13T08:08:20.646Z,10.20
2018-09-13T08:09:20.617Z,11.30
2018-09-13T08:10:20.586Z,10.60
2018-09-13T08:11:20.553Z,9.50
2018-09-13T08:12:20.534Z,11.60
2018-09-13T08:13:20.520Z,10.20
2018-09-13T08:14:20.504Z,11.00
2018-09-13T08:15:20.464Z,12.00
2018-09-13T08:16:20.463Z,11.20
2018-09-13T08:17:20.432Z,10.20
2018-09-13T08:18:20.405Z,10.70
2018-09-13T08:19:20.383Z,10.40
2018-09-13T08:20:20.347Z,8.20
2018-09-13T08:21:20.362Z,10.10
2018-09-13T08:22:20.306Z,9.70
2018-09-13T08:23:20.286Z,10.40
2018-09-13T08:24:20.258Z,9.00
2018-09-13T08:25:20.235Z,8.90
2018-09-13T08:26:20.209Z,6.40
2018-09-13T08:27:20.231Z,8.80
2018-09-13T08:28:20.169Z,11.80
2018-09-13T08:29:20.140Z,10.20
2018-09-13T08:30:20.101Z,9.20
2018-09-13T08:31:20.084Z,10.00
2018-09-13T08:32:20.068Z,8.80
2018-09-13T08:33:20.119Z,9.80
2018-09-13T08:34:20.027Z,9.20
2018-09-13T08:35:19.998Z,9.50
2018-09-13T08:36:19.970Z,10.00
2018-09-13T08:37:19.939Z,10.50
2018-09-13T08:38:19.923Z,9.60
2018-09-13T08:39:19.897Z,10.00
2018-09-13T08:40:19.876Z,9.30
2018-09-13T08:41:19.846Z,9.50
2018-09-13T08:42:19.830Z,8.50
2018-09-13T08:43:19.809Z,10.50
2018-09-13T08:44:19.784Z,10.30
2018-09-13T08:45:19.766Z,10.00
2018-09-13T08:46:19.738Z,8.80
2018-09-13T08:47:19.715Z,9.70
2018-09-13T08:48:19.676Z,11.20
2018-09-13T08:49:19.669Z,10.60
2018-09-13T08:50:19.633Z,9.80
2018-09-13T08:51:19.616Z,8.70
2018-09-13T08:52:19.592Z,9.90
2018-09-13T08:53:19.553Z,9.50
2018-09-13T08:54:19.543Z,11.10
2018-09-13T08:55:19.511Z,9.20
2018-09-13T08:56:19.490Z,12.50
2018-09-13T08:57:19.478Z,10.10
2018-09-13T08:58:19.767Z,10.20
2018-09-13T08:59:19.434Z,11.10
2018-09-13T09:00:19.403Z,10.80
2018-09-13T09:01:19.371Z,10.30
2018-09-13T09:02:19.353Z,10.80
2018-09-13T09:03:19.320Z,11.10
2018-09-13T09:04:19.439Z,8.30
2018-09-13T09:05:19.277Z,10.50
2018-09-13T09:06:19.261Z,10.40
2018-09-13T09:07:19.233Z,9.00
2018-09-13T09:08:19.213Z,10.00
2018-09-13T09:09:19.187Z,10.70
2018-09-13T09:10:19.154Z,9.60
2018-09-13T09:11:19.144Z,10.40
2018-09-13T09:12:19.120Z,12.20
2018-09-13T09:13:19.080Z,11.20
2018-09-13T09:14:19.073Z,12.00
2018-09-13T09:15:19.050Z,10.70
2018-09-13T09:16:19.020Z,12.20
2018-09-13T09:17:19.002Z,11.30
2018-09-13T09:18:18.978Z,10.40
2018-09-13T09:19:18.955Z,9.30
2018-09-13T09:20:18.926Z,10.80
2018-09-13T09:21:18.904Z,9.00
2018-09-13T09:22:18.873Z,10.70
2018-09-13T09:23:18.855Z,9.20
2018-09-13T09:24:18.856Z,11.20
2018-09-13T09:25:18.813Z,9.40
2018-09-13T09:26:18.785Z,10.70
2018-09-13T09:27:18.750Z,10.70
2018-09-13T09:28:18.727Z,11.30
2018-09-13T09:29:18.764Z,9.30
2018-09-13T09:30:18.690Z,10.50
2018-09-13T09:31:18.657Z,11.80
2018-09-13T09:32:18.657Z,10.10
2018-09-13T09:33:18.615Z,10.20
2018-09-13T09:34:51.929Z,8.40
2018-09-13T09:35:18.608Z,9.50
2018-09-13T09:36:18.540Z,10.90
2018-09-13T09:37:18.525Z,11.40
2018-09-13T09:38:18.504Z,11.60
2018-09-13T09:39:18.467Z,10.70
2018-09-13T09:40:18.455Z,10.30
2018-09-13T09:41:18.419Z,8.80
2018-09-13T09:42:18.400Z,10.70
2018-09-13T09:43:18.381Z,10.30
2018-09-13T09:44:18.413Z,11.10
2018-09-13T09:45:18.339Z,8.30
2018-09-13T09:46:18.317Z,10.40
2018-09-13T09:47:18.275Z,11.80
2018-09-13T09:48:18.251Z,11.60
2018-09-13T09:49:18.231Z,10.40
2018-09-13T09:50:18.220Z,11.20
2018-09-13T09:51:18.195Z,10.70
2018-09-13T09:52:18.188Z,10.90
2018-09-13T09:53:18.148Z,8.40
2018-09-13T09:54:18.123Z,9.80
2018-09-13T09:55:18.099Z,11.30
2018-09-13T09:56:18.151Z,11.70
2018-09-13T09:57:18.041Z,11.80
2018-09-13T09:58:18.018Z,10.80
2018-09-13T09:59:18.010Z,9.60
2018-09-13T10:00:17.973Z,10.50
2018-09-13T10:01:17.966Z,10.70
2018-09-13T10:02:17.935Z,9.90
2018-09-13T10:03:17.904Z,10.40
2018-09-13T10:04:17.947Z,12.90
2018-09-13T10:05:18.005Z,11.90
2018-09-13T10:06:17.837Z,11.70
2018-09-13T10:07:17.807Z,12.70
2018-09-13T10:08:17.798Z,9.80
2018-09-13T10:09:17.763Z,11.30
2018-09-13T10:10:17.744Z,12.20
2018-09-13T10:11:17.711Z,11.90
2018-09-13T10:12:17.699Z,12.40
2018-09-13T10:13:17.666Z,10.70
2018-09-13T10:14:17.673Z,10.80
2018-09-13T10:15:17.634Z,12.60
2018-09-13T10:16:17.681Z,11.30
2018-09-13T10:17:17.574Z,12.60
2018-09-13T10:18:17.561Z,12.90
2018-09-13T10:19:17.527Z,10.90
2018-09-13T10:20:17.509Z,13.40
2018-09-13T10:21:17.490Z,14.50
2018-09-13T10:22:17.470Z,14.00
2018-09-13T10:23:17.435Z,13.40
2018-09-13T10:24:17.410Z,11.70
2018-09-13T10:25:17.389Z,15.10
2018-09-13T10:26:17.361Z,13.20
2018-09-13T10:27:17.340Z,11.40
2018-09-13T10:28:17.432Z,11.10
2018-09-13T10:29:17.778Z,11.80
2018-09-13T10:30:17.276Z,12.20
2018-09-13T10:31:17.244Z,13.00
2018-09-13T10:32:17.222Z,13.30
2018-09-13T10:33:17.210Z,12.20
2018-09-13T10:34:17.183Z,12.10
2018-09-13T10:35:17.156Z,14.40
2018-09-13T10:36:17.141Z,14.40
2018-09-13T10:37:17.116Z,13.10
2018-09-13T10:38:17.091Z,14.40
2018-09-13T10:39:17.073Z,13.80
2018-09-13T10:40:17.054Z,12.90
2018-09-13T10:41:17.028Z,13.70
2018-09-13T10:42:16.989Z,14.60
2018-09-13T10:43:16.982Z,12.90
2018-09-13T10:44:16.948Z,12.20
2018-09-13T10:45:16.921Z,14.50
2018-09-13T10:46:16.912Z,13.00
2018-09-13T10:47:16.885Z,13.50
2018-09-13T10:48:16.989Z,16.30
2018-09-13T10:49:16.840Z,15.20
2018-09-13T10:50:16.824Z,15.30
2018-09-13T10:51:16.778Z,13.80
2018-09-13T10:52:16.821Z,15.80
2018-09-13T10:53:16.735Z,15.60
2018-09-13T10:54:16.771Z,14.80
2018-09-13T10:55:16.747Z,13.30
2018-09-13T10:56:16.666Z,16.70
2018-09-13T10:57:16.664Z,14.20
2018-09-13T10:58:16.632Z,14.50
2018-09-13T10:59:16.675Z,14.10
2018-09-13T11:00:16.588Z,16.00
2018-09-13T11:01:16.579Z,15.80
2018-09-13T11:02:16.543Z,15.10
2018-09-13T11:03:16.511Z,16.90
2018-09-13T11:04:16.508Z,16.60
2018-09-13T11:05:16.467Z,16.70
2018-09-13T11:06:16.440Z,16.00
2018-09-13T11:07:16.428Z,15.50
2018-09-13T11:08:16.403Z,15.50
2018-09-13T11:09:16.369Z,14.80
2018-09-13T11:10:16.349Z,16.30
2018-09-13T11:11:16.350Z,15.70
2018-09-13T11:12:16.420Z,15.80
2018-09-13T11:13:16.290Z,14.00
2018-09-13T11:14:16.257Z,16.50
2018-09-13T11:15:16.250Z,13.60
2018-09-13T11:16:16.222Z,15.40
2018-09-13T11:17:16.198Z,16.60
2018-09-13T11:18:16.169Z,18.90
2018-09-13T11:19:16.139Z,16.50
2018-09-13T11:20:16.131Z,17.80
2018-09-13T11:21:16.106Z,17.00
2018-09-13T11:22:16.085Z,18.30
2018-09-13T11:23:16.052Z,18.80
2018-09-13T11:24:16.115Z,17.90
2018-09-13T11:25:16.018Z,15.10
2018-09-13T11:26:15.985Z,15.20
2018-09-13T11:27:15.960Z,16.40
2018-09-13T11:28:15.938Z,16.40
2018-09-13T11:29:15.915Z,17.30
2018-09-13T11:30:15.893Z,14.90
2018-09-13T11:31:15.871Z,15.20
2018-09-13T11:32:15.857Z,14.50
2018-09-13T11:33:15.836Z,16.20
2018-09-13T11:34:15.816Z,18.20
2018-09-13T11:35:15.781Z,17.30
2018-09-13T11:36:15.761Z,18.40
2018-09-13T11:37:15.751Z,17.30
2018-09-13T11:38:15.729Z,17.10
2018-09-13T11:39:15.689Z,15.20
2018-09-13T11:40:15.730Z,15.80
2018-09-13T11:41:15.652Z,16.10
2018-09-13T11:42:15.633Z,17.50
2018-09-13T11:43:15.604Z,16.60
2018-09-13T11:44:15.596Z,17.20
2018-09-13T11:45:15.554Z,13.90
2018-09-13T11:46:15.527Z,15.30
2018-09-13T11:47:15.522Z,17.20
2018-09-13T11:48:15.502Z,15.70
2018-09-13T11:49:15.476Z,13.00
2018-09-13T11:50:15.452Z,14.30
2018-09-13T11:51:15.429Z,16.20
2018-09-13T11:52:15.411Z,16.90
2018-09-13T11:53:15.390Z,17.40
2018-09-13T11:54:15.374Z,14.90
2018-09-13T11:55:15.342Z,16.60
2018-09-13T11:56:15.311Z,16.10
2018-09-13T11:57:15.302Z,14.00
2018-09-13T11:58:15.276Z,15.80
2018-09-13T11:59:15.252Z,15.10
2018-09-13T12:00:15.227Z,14.20
2018-09-13T12:01:15.311Z,15.00
2018-09-13T12:02:15.178Z,13.70
2018-09-13T12:03:15.452Z,14.10
2018-09-13T12:04:15.138Z,17.00
2018-09-13T12:05:15.456Z,15.90
2018-09-13T12:06:15.100Z,16.90
2018-09-13T12:07:15.071Z,16.60
2018-09-13T12:08:15.061Z,18.20
2018-09-13T12:09:15.033Z,16.40
2018-09-13T12:10:15.008Z,16.40
2018-09-13T12:11:14.998Z,12.60
2018-09-13T12:12:14.973Z,16.30
2018-09-13T12:13:14.947Z,16.80
2018-09-13T12:14:14.933Z,16.60
2018-09-13T12:15:14.908Z,15.70
2018-09-13T12:16:14.885Z,16.80
2018-09-13T12:17:14.859Z,16.50
2018-09-13T12:18:14.839Z,15.10
2018-09-13T12:19:14.878Z,15.50
2018-09-13T12:20:14.792Z,14.40
2018-09-13T12:21:14.769Z,14.90
2018-09-13T12:22:14.800Z,13.10
2018-09-13T12:23:14.723Z,15.20
2018-09-13T12:24:14.704Z,16.30
2018-09-13T12:25:14.682Z,14.90
2018-09-13T12:26:14.679Z,18.70
2018-09-13T12:27:14.658Z,17.10
2018-09-13T12:28:14.630Z,15.70
2018-09-13T12:29:14.611Z,14.60
2018-09-13T12:30:14.667Z,11.10
2018-09-13T12:31:14.608Z,18.10
2018-09-13T12:32:14.532Z,18.70
2018-09-13T12:33:14.514Z,18.90
2018-09-13T12:34:14.496Z,21.10
2018-09-13T12:35:14.481Z,21.50
2018-09-13T12:36:14.456Z,19.20
2018-09-13T12:37:14.443Z,19.60
2018-09-13T12:38:14.409Z,19.00
2018-09-13T12:39:14.400Z,19.50
2018-09-13T12:40:14.380Z,20.10
2018-09-13T12:41:14.360Z,17.40
2018-09-13T12:42:14.342Z,17.80
2018-09-13T12:43:14.326Z,15.00
2018-09-13T12:44:14.289Z,16.50
2018-09-13T12:45:14.270Z,18.40
2018-09-13T12:46:14.247Z,16.30
2018-09-13T12:47:14.224Z,15.70
2018-09-13T12:48:14.218Z,16.50
2018-09-13T12:49:14.195Z,17.40
2018-09-13T12:50:14.170Z,17.80
2018-09-13T12:51:14.152Z,17.50
2018-09-13T12:52:14.166Z,17.70
2018-09-13T12:53:14.129Z,15.80
2018-09-13T12:54:14.108Z,15.30
2018-09-13T12:55:14.095Z,14.70
2018-09-13T12:56:14.077Z,16.50
2018-09-13T12:57:14.055Z,18.40
2018-09-13T12:58:14.094Z,18.50
2018-09-13T12:59:14.012Z,18.50
2018-09-13T13:00:13.988Z,17.90
2018-09-13T13:01:13.975Z,16.70
2018-09-13T13:02:13.973Z,17.60
2018-09-13T13:03:13.945Z,17.40
2018-09-13T13:04:13.921Z,18.90
2018-09-13T13:05:13.914Z,18.60
2018-09-13T13:06:13.900Z,16.40
2018-09-13T13:07:13.868Z,17.60
2018-09-13T13:08:13.854Z,16.90